sensor_id;sensor_type;location;lat;lon;timestamp;pressure;altitude;pressure_sealevel;temperature;humidity
23164;BME280;31429;42.674;23.350;2022-12-18T00:00:32;95508.44;;;7.15;100.00
23164;BME280;31429;42.674;23.350;2022-12-18T00:01:34;95517.13;;;6.97;100.00
23164;BME280;31429;42.674;23.350;2022-12-18T00:02:35;95514.53;;;6.99;100.00
23164;BME280;31429;42.674;23.350;2022-12-18T00:03:36;95523.19;;;6.85;100.00
23164;BME280;31429;42.674;23.350;2022-12-18T00:04:36;95517.25;;;6.86;100.00
23164;BME280;31429;42.674;23.350;2022-12-18T00:05:37;95513.69;;;7.00;100.00
23164;BME280;31429;42.674;23.350;2022-12-18T00:06:39;95522.81;;;7.16;100.00
23164;BME280;31429;42.674;23.350;2022-12-18T00:07:40;95518.81;;;6.97;100.00
23164;BME280;31429;42.674;23.350;2022-12-18T00:08:40;95517.94;;;7.01;100.00
23164;BME280;31429;42.674;23.350;2022-12-18T00:09:41;95523.22;;;6.82;100.00
23164;BME280;31429;42.674;23.350;2022-12-18T00:10:42;95524.00;;;6.87;100.00
23164;BME280;31429;42.674;23.350;2022-12-18T00:11:42;95516.34;;;6.90;100.00
23164;BME280;31429;42.674;23.350;2022-12-18T00:12:43;95517.94;;;6.99;100.00
23164;BME280;31429;42.674;23.350;2022-12-18T00:13:44;95527.84;;;7.20;100.00
23164;BME280;31429;42.674;23.350;2022-12-18T00:14:45;95534.16;;;6.89;100.00
23164;BME280;31429;42.674;23.350;2022-12-18T00:15:46;95525.66;;;6.91;100.00
23164;BME280;31429;42.674;23.350;2022-12-18T00:16:46;95533.31;;;6.88;100.00
23164;BME280;31429;42.674;23.350;2022-12-18T00:17:47;95535.97;;;6.79;100.00
23164;BME280;31429;42.674;23.350;2022-12-18T00:18:49;95533.41;;;6.79;100.00
23164;BME280;31429;42.674;23.350;2022-12-18T00:19:50;95535.16;;;6.74;100.00
23164;BME280;31429;42.674;23.350;2022-12-18T00:20:50;95530.13;;;6.71;100.00
23164;BME280;31429;42.674;23.350;2022-12-18T00:21:52;95539.56;;;6.57;100.00
23164;BME280;31429;42.674;23.350;2022-12-18T00:22:53;95540.28;;;6.70;100.00
23164;BME280;31429;42.674;23.350;2022-12-18T00:23:54;95528.50;;;6.61;100.00
23164;BME280;31429;42.674;23.350;2022-12-18T00:24:55;95546.25;;;6.69;100.00
23164;BME280;31429;42.674;23.350;2022-12-18T00:25:58;95542.97;;;6.56;100.00
23164;BME280;31429;42.674;23.350;2022-12-18T00:26:59;95540.44;;;6.56;100.00
23164;BME280;31429;42.674;23.350;2022-12-18T00:28:00;95548.88;;;6.60;100.00
23164;BME280;31429;42.674;23.350;2022-12-18T00:29:03;95543.13;;;6.40;100.00
23164;BME280;31429;42.674;23.350;2022-12-18T00:30:05;95557.59;;;6.31;100.00
23164;BME280;31429;42.674;23.350;2022-12-18T00:31:07;95546.50;;;6.43;100.00
23164;BME280;31429;42.674;23.350;2022-12-18T00:32:08;95541.38;;;6.45;100.00
23164;BME280;31429;42.674;23.350;2022-12-18T00:33:09;95556.59;;;6.49;100.00
23164;BME280;31429;42.674;23.350;2022-12-18T00:34:11;95554.13;;;6.40;100.00
23164;BME280;31429;42.674;23.350;2022-12-18T00:35:12;95548.03;;;6.59;100.00
23164;BME280;31429;42.674;23.350;2022-12-18T00:36:14;95557.97;;;6.79;100.00
23164;BME280;31429;42.674;23.350;2022-12-18T00:37:16;95553.84;;;6.67;100.00
23164;BME280;31429;42.674;23.350;2022-12-18T00:38:17;95537.19;;;6.44;100.00
23164;BME280;31429;42.674;23.350;2022-12-18T00:39:18;95553.84;;;6.67;100.00
23164;BME280;31429;42.674;23.350;2022-12-18T00:40:18;95557.28;;;6.66;100.00
23164;BME280;31429;42.674;23.350;2022-12-18T00:41:19;95561.59;;;6.57;100.00
23164;BME280;31429;42.674;23.350;2022-12-18T00:42:38;95567.53;;;6.54;100.00
23164;BME280;31429;42.674;23.350;2022-12-18T00:43:57;95566.63;;;6.61;100.00
23164;BME280;31429;42.674;23.350;2022-12-18T00:44:58;95563.50;;;6.35;100.00
23164;BME280;31429;42.674;23.350;2022-12-18T00:45:58;95562.63;;;6.38;100.00
23164;BME280;31429;42.674;23.350;2022-12-18T00:46:59;95560.88;;;6.43;100.00
23164;BME280;31429;42.674;23.350;2022-12-18T00:48:00;95560.88;;;6.43;100.00
23164;BME280;31429;42.674;23.350;2022-12-18T00:49:00;95571.84;;;6.49;100.00
23164;BME280;31429;42.674;23.350;2022-12-18T00:50:01;95571.00;;;6.49;100.00
23164;BME280;31429;42.674;23.350;2022-12-18T00:51:02;95562.53;;;6.45;100.00
23164;BME280;31429;42.674;23.350;2022-12-18T00:52:03;95572.06;;;6.19;100.00
23164;BME280;31429;42.674;23.350;2022-12-18T00:53:05;95565.75;;;6.65;100.00
23164;BME280;31429;42.674;23.350;2022-12-18T00:54:06;95560.00;;;6.45;100.00
23164;BME280;31429;42.674;23.350;2022-12-18T00:55:07;95570.31;;;6.30;100.00
23164;BME280;31429;42.674;23.350;2022-12-18T00:56:08;95571.25;;;6.21;100.00
23164;BME280;31429;42.674;23.350;2022-12-18T00:57:08;95576.34;;;6.15;100.00
23164;BME280;31429;42.674;23.350;2022-12-18T00:58:10;95576.13;;;6.44;100.00
23164;BME280;31429;42.674;23.350;2022-12-18T00:59:11;95571.31;;;6.99;100.00
23164;BME280;31429;42.674;23.350;2022-12-18T01:00:13;95575.97;;;6.61;100.00
23164;BME280;31429;42.674;23.350;2022-12-18T01:01:14;95578.66;;;6.44;100.00
23164;BME280;31429;42.674;23.350;2022-12-18T01:02:15;95578.56;;;6.50;100.00
23164;BME280;31429;42.674;23.350;2022-12-18T01:03:15;95578.69;;;6.41;100.00
23164;BME280;31429;42.674;23.350;2022-12-18T01:04:16;95581.25;;;6.38;100.00
23164;BME280;31429;42.674;23.350;2022-12-18T01:05:16;95589.66;;;6.43;100.00
23164;BME280;31429;42.674;23.350;2022-12-18T01:06:17;95577.09;;;6.28;100.00
23164;BME280;31429;42.674;23.350;2022-12-18T01:07:18;95589.81;;;6.23;100.00
23164;BME280;31429;42.674;23.350;2022-12-18T01:08:20;95588.84;;;6.40;100.00
23164;BME280;31429;42.674;23.350;2022-12-18T01:09:20;95579.47;;;6.46;100.00
23164;BME280;31429;42.674;23.350;2022-12-18T01:10:21;95583.81;;;6.35;100.00
23164;BME280;31429;42.674;23.350;2022-12-18T01:11:22;95593.84;;;6.47;100.00
23164;BME280;31429;42.674;23.350;2022-12-18T01:12:23;95584.75;;;6.23;100.00
23164;BME280;31429;42.674;23.350;2022-12-18T01:13:24;95594.94;;;6.20;100.00
23164;BME280;31429;42.674;23.350;2022-12-18T01:14:24;95595.00;;;6.08;100.00
23164;BME280;31429;42.674;23.350;2022-12-18T01:15:25;95599.84;;;6.40;100.00
23164;BME280;31429;42.674;23.350;2022-12-18T01:16:25;95587.16;;;6.37;100.00
23164;BME280;31429;42.674;23.350;2022-12-18T01:17:26;95598.41;;;6.06;100.00
23164;BME280;31429;42.674;23.350;2022-12-18T01:18:27;95597.31;;;6.40;100.00
23164;BME280;31429;42.674;23.350;2022-12-18T01:19:27;95594.03;;;6.26;100.00
23164;BME280;31429;42.674;23.350;2022-12-18T01:20:28;95606.94;;;5.97;100.00
23164;BME280;31429;42.674;23.350;2022-12-18T01:21:29;95604.34;;;6.05;100.00
23164;BME280;31429;42.674;23.350;2022-12-18T01:22:29;95602.63;;;6.10;100.00
23164;BME280;31429;42.674;23.350;2022-12-18T01:23:31;95599.06;;;6.32;100.00
23164;BME280;31429;42.674;23.350;2022-12-18T01:24:50;95603.50;;;6.06;100.00
23164;BME280;31429;42.674;23.350;2022-12-18T01:25:51;95611.09;;;6.06;100.00
23164;BME280;31429;42.674;23.350;2022-12-18T01:26:52;95611.94;;;6.05;100.00
23164;BME280;31429;42.674;23.350;2022-12-18T01:27:52;95600.91;;;6.15;100.00
23164;BME280;31429;42.674;23.350;2022-12-18T01:28:54;95605.28;;;5.92;100.00
23164;BME280;31429;42.674;23.350;2022-12-18T01:29:55;95603.56;;;5.95;100.00
23164;BME280;31429;42.674;23.350;2022-12-18T01:30:56;95612.03;;;5.94;100.00
23164;BME280;31429;42.674;23.350;2022-12-18T01:31:56;95616.34;;;5.78;100.00
23164;BME280;31429;42.674;23.350;2022-12-18T01:32:57;95610.47;;;5.67;100.00
23164;BME280;31429;42.674;23.350;2022-12-18T01:34:00;95607.84;;;5.86;100.00
23164;BME280;31429;42.674;23.350;2022-12-18T01:35:01;95610.34;;;5.92;100.00
23164;BME280;31429;42.674;23.350;2022-12-18T01:36:01;95611.25;;;5.82;100.00
23164;BME280;31429;42.674;23.350;2022-12-18T01:37:03;95613.72;;;5.95;100.00
23164;BME280;31429;42.674;23.350;2022-12-18T01:38:03;95618.00;;;5.90;100.00
23164;BME280;31429;42.674;23.350;2022-12-18T01:39:07;95618.00;;;5.79;100.00
23164;BME280;31429;42.674;23.350;2022-12-18T01:40:09;95625.75;;;5.51;100.00
23164;BME280;31429;42.674;23.350;2022-12-18T01:41:10;95622.28;;;5.68;100.00
23164;BME280;31429;42.674;23.350;2022-12-18T01:42:13;95623.19;;;5.58;100.00
23164;BME280;31429;42.674;23.350;2022-12-18T01:43:15;95620.66;;;5.58;100.00
23164;BME280;31429;42.674;23.350;2022-12-18T01:45:53;95617.25;;;5.62;100.00
23164;BME280;31429;42.674;23.350;2022-12-18T01:46:53;95621.41;;;5.77;100.00
23164;BME280;31429;42.674;23.350;2022-12-18T01:47:56;95622.34;;;5.58;100.00
23164;BME280;31429;42.674;23.350;2022-12-18T01:48:59;95617.94;;;5.95;100.00
23164;BME280;31429;42.674;23.350;2022-12-18T01:50:03;95617.19;;;5.71;100.00
23164;BME280;31429;42.674;23.350;2022-12-18T01:51:06;95631.44;;;6.03;100.00
23164;BME280;31429;42.674;23.350;2022-12-18T01:52:08;95621.44;;;5.71;100.00
23164;BME280;31429;42.674;23.350;2022-12-18T01:53:11;95622.34;;;5.56;100.00
23164;BME280;31429;42.674;23.350;2022-12-18T01:54:14;95627.38;;;5.67;100.00
23164;BME280;31429;42.674;23.350;2022-12-18T01:55:17;95630.69;;;5.90;100.00
23164;BME280;31429;42.674;23.350;2022-12-18T01:56:19;95623.97;;;5.71;100.00
23164;BME280;31429;42.674;23.350;2022-12-18T01:57:21;95628.22;;;5.67;100.00
23164;BME280;31429;42.674;23.350;2022-12-18T01:58:25;95625.66;;;5.70;100.00
23164;BME280;31429;42.674;23.350;2022-12-18T01:59:30;95633.34;;;5.54;100.00
23164;BME280;31429;42.674;23.350;2022-12-18T02:00:31;95624.88;;;5.61;100.00
23164;BME280;31429;42.674;23.350;2022-12-18T02:01:32;95629.09;;;5.63;100.00
23164;BME280;31429;42.674;23.350;2022-12-18T02:02:33;95630.00;;;5.53;100.00
23164;BME280;31429;42.674;23.350;2022-12-18T02:03:34;95630.84;;;5.52;100.00
23164;BME280;31429;42.674;23.350;2022-12-18T02:04:35;95635.88;;;5.57;100.00
23164;BME280;31429;42.674;23.350;2022-12-18T02:05:42;95629.03;;;5.72;100.00
23164;BME280;31429;42.674;23.350;2022-12-18T02:06:45;95628.34;;;5.45;100.00
23164;BME280;31429;42.674;23.350;2022-12-18T02:07:56;95638.50;;;5.39;100.00
23164;BME280;31429;42.674;23.350;2022-12-18T02:09:08;95641.81;;;5.48;100.00
23164;BME280;31429;42.674;23.350;2022-12-18T02:10:15;95642.75;;;5.29;100.00
23164;BME280;31429;42.674;23.350;2022-12-18T02:11:24;95641.00;;;5.40;100.00
23164;BME280;31429;42.674;23.350;2022-12-18T02:12:34;95641.84;;;5.44;100.00
23164;BME280;31429;42.674;23.350;2022-12-18T02:13:43;95639.25;;;5.62;100.00
23164;BME280;31429;42.674;23.350;2022-12-18T02:14:52;95639.28;;;5.48;100.00
23164;BME280;31429;42.674;23.350;2022-12-18T02:16:00;95651.19;;;5.28;100.00
23164;BME280;31429;42.674;23.350;2022-12-18T02:17:06;95648.69;;;5.20;100.00
23164;BME280;31429;42.674;23.350;2022-12-18T02:18:12;95651.25;;;5.22;100.00
23164;BME280;31429;42.674;23.350;2022-12-18T02:19:26;95641.00;;;5.46;100.00
23164;BME280;31429;42.674;23.350;2022-12-18T02:20:35;95653.72;;;5.39;100.00
23164;BME280;31429;42.674;23.350;2022-12-18T02:21:43;95647.63;;;5.71;100.00
23164;BME280;31429;42.674;23.350;2022-12-18T02:22:56;95657.00;;;5.63;100.00
23164;BME280;31429;42.674;23.350;2022-12-18T02:24:08;95639.75;;;6.26;100.00
23164;BME280;31429;42.674;23.350;2022-12-18T02:25:26;95649.38;;;5.60;100.00
23164;BME280;31429;42.674;23.350;2022-12-18T02:26:35;95656.19;;;5.55;100.00
23164;BME280;31429;42.674;23.350;2022-12-18T02:27:39;95652.03;;;5.35;100.00
23164;BME280;31429;42.674;23.350;2022-12-18T02:28:43;95662.09;;;5.53;100.00
23164;BME280;31429;42.674;23.350;2022-12-18T02:29:49;95663.69;;;5.70;100.00
23164;BME280;31429;42.674;23.350;2022-12-18T02:30:52;95668.03;;;5.49;100.00
23164;BME280;31429;42.674;23.350;2022-12-18T02:31:56;95661.31;;;5.42;100.00
23164;BME280;31429;42.674;23.350;2022-12-18T02:32:58;95655.44;;;5.31;100.00
23164;BME280;31429;42.674;23.350;2022-12-18T02:34:02;95654.47;;;5.59;100.00
23164;BME280;31429;42.674;23.350;2022-12-18T02:35:05;95656.22;;;5.43;100.00
23164;BME280;31429;42.674;23.350;2022-12-18T02:36:07;95657.91;;;5.43;100.00
23164;BME280;31429;42.674;23.350;2022-12-18T02:37:12;95652.03;;;5.36;100.00
23164;BME280;31429;42.674;23.350;2022-12-18T02:38:15;95651.81;;;5.83;100.00
23164;BME280;31429;42.674;23.350;2022-12-18T02:39:17;95652.66;;;5.85;100.00
23164;BME280;31429;42.674;23.350;2022-12-18T02:40:22;95657.03;;;5.53;100.00
23164;BME280;31429;42.674;23.350;2022-12-18T02:41:25;95652.03;;;5.35;100.00
23164;BME280;31429;42.674;23.350;2022-12-18T02:42:27;95667.16;;;5.59;100.00
23164;BME280;31429;42.674;23.350;2022-12-18T02:43:29;95669.59;;;5.77;100.00
23164;BME280;31429;42.674;23.350;2022-12-18T02:44:30;95667.19;;;5.53;100.00
23164;BME280;31429;42.674;23.350;2022-12-18T02:45:31;95672.25;;;5.45;100.00
23164;BME280;31429;42.674;23.350;2022-12-18T02:46:34;95675.69;;;5.35;100.00
23164;BME280;31429;42.674;23.350;2022-12-18T02:47:38;95665.53;;;5.44;100.00
23164;BME280;31429;42.674;23.350;2022-12-18T02:48:39;95663.00;;;5.37;100.00
23164;BME280;31429;42.674;23.350;2022-12-18T02:49:47;95668.13;;;5.28;100.00
23164;BME280;31429;42.674;23.350;2022-12-18T02:50:59;95660.09;;;6.21;100.00
23164;BME280;31429;42.674;23.350;2022-12-18T02:52:12;95662.81;;;5.87;100.00
23164;BME280;31429;42.674;23.350;2022-12-18T02:53:22;95661.97;;;5.89;100.00
23164;BME280;31429;42.674;23.350;2022-12-18T02:54:34;95666.31;;;5.57;100.00
23164;BME280;31429;42.674;23.350;2022-12-18T02:55:47;95661.13;;;5.86;100.00
23164;BME280;31429;42.674;23.350;2022-12-18T02:56:55;95662.06;;;5.63;100.00
23164;BME280;31429;42.674;23.350;2022-12-18T02:58:02;95660.38;;;5.56;100.00
23164;BME280;31429;42.674;23.350;2022-12-18T02:59:07;95671.44;;;5.37;100.00
23164;BME280;31429;42.674;23.350;2022-12-18T03:00:12;95664.72;;;5.36;100.00
23164;BME280;31429;42.674;23.350;2022-12-18T03:01:17;95658.78;;;5.28;100.00
23164;BME280;31429;42.674;23.350;2022-12-18T03:02:25;95672.34;;;5.18;100.00
23164;BME280;31429;42.674;23.350;2022-12-18T03:03:31;95668.97;;;5.20;100.00
23164;BME280;31429;42.674;23.350;2022-12-18T03:04:39;95676.59;;;5.10;100.00
23164;BME280;31429;42.674;23.350;2022-12-18T03:05:47;95672.41;;;5.04;100.00
23164;BME280;31429;42.674;23.350;2022-12-18T03:06:54;95686.72;;;5.02;100.00
23164;BME280;31429;42.674;23.350;2022-12-18T03:07:58;95674.97;;;4.91;100.00
23164;BME280;31429;42.674;23.350;2022-12-18T03:09:06;95685.06;;;4.89;100.00
23164;BME280;31429;42.674;23.350;2022-12-18T03:10:10;95679.91;;;5.39;100.00
23164;BME280;31429;42.674;23.350;2022-12-18T03:11:13;95687.53;;;5.19;100.00
23164;BME280;31429;42.674;23.350;2022-12-18T03:12:17;95672.06;;;5.94;100.00
23164;BME280;31429;42.674;23.350;2022-12-18T03:13:30;95682.38;;;5.51;100.00
23164;BME280;31429;42.674;23.350;2022-12-18T03:14:34;95683.31;;;5.31;100.00
23164;BME280;31429;42.674;23.350;2022-12-18T03:15:40;95686.59;;;5.51;100.00
23164;BME280;31429;42.674;23.350;2022-12-18T03:16:43;95691.72;;;5.42;100.00
23164;BME280;31429;42.674;23.350;2022-12-18T03:17:48;95688.41;;;5.11;100.00
23164;BME280;31429;42.674;23.350;2022-12-18T03:18:54;95687.53;;;5.32;100.00
23164;BME280;31429;42.674;23.350;2022-12-18T03:20:00;95685.88;;;5.28;100.00
23164;BME280;31429;42.674;23.350;2022-12-18T03:21:05;95687.59;;;5.16;100.00
23164;BME280;31429;42.674;23.350;2022-12-18T03:22:07;95676.53;;;5.39;100.00
23164;BME280;31429;42.674;23.350;2022-12-18T03:23:10;95683.00;;;6.05;100.00
23164;BME280;31429;42.674;23.350;2022-12-18T03:24:13;95693.38;;;5.58;100.00
23164;BME280;31429;42.674;23.350;2022-12-18T03:25:17;95690.09;;;5.24;100.00
23164;BME280;31429;42.674;23.350;2022-12-18T03:26:22;95694.28;;;5.33;100.00
23164;BME280;31429;42.674;23.350;2022-12-18T03:27:25;95698.47;;;5.43;100.00
23164;BME280;31429;42.674;23.350;2022-12-18T03:28:31;95701.06;;;5.32;100.00
23164;BME280;31429;42.674;23.350;2022-12-18T03:29:37;95693.41;;;5.37;100.00
23164;BME280;31429;42.674;23.350;2022-12-18T03:30:40;95696.03;;;5.15;100.00
23164;BME280;31429;42.674;23.350;2022-12-18T03:31:42;95697.56;;;5.60;100.00
23164;BME280;31429;42.674;23.350;2022-12-18T03:34:10;95711.22;;;5.25;100.00
23164;BME280;31429;42.674;23.350;2022-12-18T03:35:14;95702.78;;;5.00;100.00
23164;BME280;31429;42.674;23.350;2022-12-18T03:36:18;95707.88;;;5.04;100.00
23164;BME280;31429;42.674;23.350;2022-12-18T03:37:19;95707.84;;;4.94;100.00
23164;BME280;31429;42.674;23.350;2022-12-18T03:38:19;95714.59;;;5.11;100.00
23164;BME280;31429;42.674;23.350;2022-12-18T03:39:20;95717.19;;;4.96;100.00
23164;BME280;31429;42.674;23.350;2022-12-18T03:40:26;95721.38;;;5.12;100.00
23164;BME280;31429;42.674;23.350;2022-12-18T03:41:32;95720.53;;;5.10;100.00
23164;BME280;31429;42.674;23.350;2022-12-18T03:42:38;95717.16;;;5.13;100.00
23164;BME280;31429;42.674;23.350;2022-12-18T03:43:49;95732.34;;;5.08;100.00
23164;BME280;31429;42.674;23.350;2022-12-18T03:44:55;95729.84;;;4.99;100.00
23164;BME280;31429;42.674;23.350;2022-12-18T03:46:02;95734.06;;;4.99;100.00
23164;BME280;31429;42.674;23.350;2022-12-18T03:47:09;95724.78;;;4.96;100.00
23164;BME280;31429;42.674;23.350;2022-12-18T03:48:17;95738.25;;;4.97;100.00
23164;BME280;31429;42.674;23.350;2022-12-18T03:49:24;95723.06;;;5.09;100.00
23164;BME280;31429;42.674;23.350;2022-12-18T03:50:34;95732.34;;;5.08;100.00
23164;BME280;31429;42.674;23.350;2022-12-18T03:51:42;95737.41;;;5.02;100.00
23164;BME280;31429;42.674;23.350;2022-12-18T03:52:49;95745.88;;;4.82;100.00
23164;BME280;31429;42.674;23.350;2022-12-18T03:53:55;95742.50;;;4.80;100.00
23164;BME280;31429;42.674;23.350;2022-12-18T03:54:58;95734.91;;;4.78;100.00
23164;BME280;31429;42.674;23.350;2022-12-18T03:56:00;95745.03;;;4.80;100.00
23164;BME280;31429;42.674;23.350;2022-12-18T03:57:06;95741.66;;;4.82;100.00
23164;BME280;31429;42.674;23.350;2022-12-18T03:58:08;95736.59;;;4.93;100.00
23164;BME280;31429;42.674;23.350;2022-12-18T03:59:13;95736.59;;;4.78;100.00
23164;BME280;31429;42.674;23.350;2022-12-18T04:00:17;95745.84;;;4.97;100.00
23164;BME280;31429;42.674;23.350;2022-12-18T04:01:20;95739.09;;;4.88;100.00
23164;BME280;31429;42.674;23.350;2022-12-18T04:02:23;95740.81;;;4.91;100.00
23164;BME280;31429;42.674;23.350;2022-12-18T04:03:25;95745.88;;;4.83;100.00
23164;BME280;31429;42.674;23.350;2022-12-18T04:04:29;95746.72;;;4.78;100.00
23164;BME280;31429;42.674;23.350;2022-12-18T04:05:31;95755.19;;;4.77;100.00
23164;BME280;31429;42.674;23.350;2022-12-18T04:06:34;95744.19;;;4.91;100.00
23164;BME280;31429;42.674;23.350;2022-12-18T04:07:36;95739.97;;;4.90;100.00
23164;BME280;31429;42.674;23.350;2022-12-18T04:08:37;95743.34;;;5.04;100.00
23164;BME280;31429;42.674;23.350;2022-12-18T04:09:41;95742.41;;;5.46;100.00
23164;BME280;31429;42.674;23.350;2022-12-18T04:10:42;95743.31;;;5.22;100.00
23164;BME280;31429;42.674;23.350;2022-12-18T04:11:43;95748.44;;;4.88;100.00
23164;BME280;31429;42.674;23.350;2022-12-18T04:12:46;95748.41;;;5.12;100.00
23164;BME280;31429;42.674;23.350;2022-12-18T04:13:47;95752.63;;;4.78;100.00
23164;BME280;31429;42.674;23.350;2022-12-18T04:14:49;95756.00;;;4.68;100.00
23164;BME280;31429;42.674;23.350;2022-12-18T04:15:50;95765.31;;;4.71;100.00
23164;BME280;31429;42.674;23.350;2022-12-18T04:16:51;95753.47;;;4.65;100.00
23164;BME280;31429;42.674;23.350;2022-12-18T04:17:52;95767.81;;;4.64;100.00
23164;BME280;31429;42.674;23.350;2022-12-18T04:18:52;95771.19;;;4.63;100.00
23164;BME280;31429;42.674;23.350;2022-12-18T04:19:53;95772.06;;;4.81;100.00
23164;BME280;31429;42.674;23.350;2022-12-18T04:20:54;95761.06;;;4.94;100.00
23164;BME280;31429;42.674;23.350;2022-12-18T04:21:54;95767.84;;;4.93;100.00
23164;BME280;31429;42.674;23.350;2022-12-18T04:22:55;95774.59;;;4.87;100.00
23164;BME280;31429;42.674;23.350;2022-12-18T04:23:56;95772.91;;;4.98;100.00
23164;BME280;31429;42.674;23.350;2022-12-18T04:24:56;95776.28;;;5.09;100.00
23164;BME280;31429;42.674;23.350;2022-12-18T04:25:57;95772.88;;;5.08;100.00
23164;BME280;31429;42.674;23.350;2022-12-18T04:26:58;95781.34;;;4.92;100.00
23164;BME280;31429;42.674;23.350;2022-12-18T04:27:58;95760.25;;;4.71;100.00
23164;BME280;31429;42.674;23.350;2022-12-18T04:28:59;95776.25;;;4.67;100.00
23164;BME280;31429;42.674;23.350;2022-12-18T04:30:01;95781.31;;;4.56;100.00
23164;BME280;31429;42.674;23.350;2022-12-18T04:31:01;95778.81;;;4.62;100.00
23164;BME280;31429;42.674;23.350;2022-12-18T04:32:02;95782.19;;;4.85;100.00
23164;BME280;31429;42.674;23.350;2022-12-18T04:33:03;95785.56;;;4.77;100.00
23164;BME280;31429;42.674;23.350;2022-12-18T04:34:04;95791.47;;;4.95;100.00
23164;BME280;31429;42.674;23.350;2022-12-18T04:35:05;95784.72;;;4.84;100.00
23164;BME280;31429;42.674;23.350;2022-12-18T04:36:10;95792.31;;;4.87;100.00
23164;BME280;31429;42.674;23.350;2022-12-18T04:37:12;95786.41;;;4.97;100.00
23164;BME280;31429;42.674;23.350;2022-12-18T04:38:13;95794.00;;;4.79;100.00
23164;BME280;31429;42.674;23.350;2022-12-18T04:39:14;95788.94;;;4.70;100.00
23164;BME280;31429;42.674;23.350;2022-12-18T04:40:15;95784.72;;;4.84;100.00
23164;BME280;31429;42.674;23.350;2022-12-18T04:41:15;95791.44;;;4.71;100.00
23164;BME280;31429;42.674;23.350;2022-12-18T04:42:16;95799.06;;;4.83;100.00
23164;BME280;31429;42.674;23.350;2022-12-18T04:43:17;95793.97;;;4.71;100.00
23164;BME280;31429;42.674;23.350;2022-12-18T04:44:17;95801.59;;;4.67;100.00
23164;BME280;31429;42.674;23.350;2022-12-18T04:45:19;95797.38;;;4.76;100.00
23164;BME280;31429;42.674;23.350;2022-12-18T04:46:20;95796.50;;;4.59;100.00
23164;BME280;31429;42.674;23.350;2022-12-18T04:47:21;95805.81;;;4.68;100.00
23164;BME280;31429;42.674;23.350;2022-12-18T04:48:21;95804.09;;;4.45;100.00
23164;BME280;31429;42.674;23.350;2022-12-18T04:49:22;95804.97;;;4.56;100.00
23164;BME280;31429;42.674;23.350;2022-12-18T04:50:22;95804.94;;;4.55;100.00
23164;BME280;31429;42.674;23.350;2022-12-18T04:51:23;95804.94;;;4.55;100.00
23164;BME280;31429;42.674;23.350;2022-12-18T04:52:24;95804.97;;;4.62;100.00
23164;BME280;31429;42.674;23.350;2022-12-18T04:53:25;95802.47;;;4.82;100.00
23164;BME280;31429;42.674;23.350;2022-12-18T04:54:25;95808.38;;;4.77;100.00
23164;BME280;31429;42.674;23.350;2022-12-18T04:55:26;95821.84;;;4.74;100.00
23164;BME280;31429;42.674;23.350;2022-12-18T04:56:27;95814.22;;;4.54;100.00
23164;BME280;31429;42.674;23.350;2022-12-18T04:57:27;95814.25;;;4.67;100.00
23164;BME280;31429;42.674;23.350;2022-12-18T04:58:28;95820.16;;;4.72;100.00
23164;BME280;31429;42.674;23.350;2022-12-18T04:59:29;95834.47;;;4.45;100.00
23164;BME280;31429;42.674;23.350;2022-12-18T05:00:31;95829.44;;;4.70;100.00
23164;BME280;31429;42.674;23.350;2022-12-18T05:01:31;95822.69;;;4.59;100.00
23164;BME280;31429;42.674;23.350;2022-12-18T05:02:33;95826.91;;;4.56;100.00
23164;BME280;31429;42.674;23.350;2022-12-18T05:03:34;95823.56;;;4.74;100.00
23164;BME280;31429;42.674;23.350;2022-12-18T05:04:35;95831.09;;;4.57;100.00
23164;BME280;31429;42.674;23.350;2022-12-18T05:05:36;95831.06;;;4.43;100.00
23164;BME280;31429;42.674;23.350;2022-12-18T05:06:36;95837.84;;;4.52;100.00
23164;BME280;31429;42.674;23.350;2022-12-18T05:07:37;95831.97;;;4.65;100.00
23164;BME280;31429;42.674;23.350;2022-12-18T05:08:38;95830.25;;;4.55;100.00
23164;BME280;31429;42.674;23.350;2022-12-18T05:09:38;95839.56;;;4.63;100.00
23164;BME280;31429;42.674;23.350;2022-12-18T05:10:39;95832.03;;;4.91;100.00
23164;BME280;31429;42.674;23.350;2022-12-18T05:11:39;95827.75;;;4.67;100.00
23164;BME280;31429;42.674;23.350;2022-12-18T05:12:40;95834.47;;;4.42;100.00
23164;BME280;31429;42.674;23.350;2022-12-18T05:13:58;95839.59;;;4.68;100.00
23164;BME280;31429;42.674;23.350;2022-12-18T05:14:58;95846.28;;;4.51;100.00
23164;BME280;31429;42.674;23.350;2022-12-18T05:16:01;95849.59;;;4.33;100.00
23164;BME280;31429;42.674;23.350;2022-12-18T05:17:02;95846.22;;;4.37;100.00
23164;BME280;31429;42.674;23.350;2022-12-18T05:18:03;95847.91;;;4.31;100.00
23164;BME280;31429;42.674;23.350;2022-12-18T05:19:04;95845.41;;;4.41;100.00
23164;BME280;31429;42.674;23.350;2022-12-18T05:20:05;95842.94;;;4.59;100.00
23164;BME280;31429;42.674;23.350;2022-12-18T05:21:06;95854.66;;;4.35;100.00
23164;BME280;31429;42.674;23.350;2022-12-18T05:22:07;95855.59;;;4.64;100.00
23164;BME280;31429;42.674;23.350;2022-12-18T05:23:07;95853.03;;;4.50;100.00
23164;BME280;31429;42.674;23.350;2022-12-18T05:24:08;95861.41;;;4.37;100.00
23164;BME280;31429;42.674;23.350;2022-12-18T05:25:09;95859.72;;;4.33;100.00
23164;BME280;31429;42.674;23.350;2022-12-18T05:26:14;95860.59;;;4.46;100.00
23164;BME280;31429;42.674;23.350;2022-12-18T05:27:15;95857.22;;;4.48;100.00
23164;BME280;31429;42.674;23.350;2022-12-18T05:28:15;95861.41;;;4.28;100.00
23164;BME280;31429;42.674;23.350;2022-12-18T05:29:16;95859.72;;;4.32;100.00
23164;BME280;31429;42.674;23.350;2022-12-18T05:30:17;95871.53;;;4.28;100.00
23164;BME280;31429;42.674;23.350;2022-12-18T05:31:19;95863.94;;;4.30;100.00
23164;BME280;31429;42.674;23.350;2022-12-18T05:32:19;95869.84;;;4.27;100.00